Canova, South Dakota
Current Conditions -  °F | °C
As of 6:10 AM on Sunday 25 Jan 2015 (Local Time) from KMDS Reporting Station
Haze Haze  
Wind Chill: 22°   Ceiling: 300
Heat Index: 32°   Visibility: 4mi
Dew Point: 32°   Wind: 15mph
Humidity: 100%   Direction: 10°N
Pressure: 29.88"   Gusts: 21mph
Location:  43.88°N, 97.5°W
Report Text: KMDS 251210Z AUTO 01013G18KT 4SM BR OVC003 00/00 A2988 RMK AO2
Loading
Personal Weather Stations






























Interactive Weather Map New forecast layout! Learn more

10-Day Weather Forecast

Advertisements
Track Severe Weather on mobile